sensor_id;sensor_type;location;lat;lon;timestamp;temperature;humidity
17529;DHT22;8882;53.192;8.184;2023-05-10T04:32:00;14.50;99.90
17529;DHT22;8882;53.192;8.184;2023-05-10T04:34:26;14.50;99.90
17529;DHT22;8882;53.192;8.184;2023-05-10T04:36:51;14.40;99.90
17529;DHT22;8882;53.192;8.184;2023-05-10T04:39:17;14.40;99.90
17529;DHT22;8882;53.192;8.184;2023-05-10T04:41:42;14.40;99.90
17529;DHT22;8882;53.192;8.184;2023-05-10T04:44:08;14.30;99.90
17529;DHT22;8882;53.192;8.184;2023-05-10T04:46:33;14.30;99.90
17529;DHT22;8882;53.192;8.184;2023-05-10T04:48:59;14.20;99.90
17529;DHT22;8882;53.192;8.184;2023-05-10T04:51:24;14.20;99.90
17529;DHT22;8882;53.192;8.184;2023-05-10T04:53:50;14.20;99.90
17529;DHT22;8882;53.192;8.184;2023-05-10T04:56:15;14.20;99.90
17529;DHT22;8882;53.192;8.184;2023-05-10T04:58:43;14.10;99.90
17529;DHT22;8882;53.192;8.184;2023-05-10T05:01:08;14.00;99.90
17529;DHT22;8882;53.192;8.184;2023-05-10T05:03:36;14.00;99.90
17529;DHT22;8882;53.192;8.184;2023-05-10T05:06:02;13.90;99.90
17529;DHT22;8882;53.192;8.184;2023-05-10T05:08:27;14.00;99.90
17529;DHT22;8882;53.192;8.184;2023-05-10T05:10:53;14.00;99.90
17529;DHT22;8882;53.192;8.184;2023-05-10T05:13:19;14.00;99.90
17529;DHT22;8882;53.192;8.184;2023-05-10T05:15:44;14.00;99.90
17529;DHT22;8882;53.192;8.184;2023-05-10T05:18:10;14.00;99.90
17529;DHT22;8882;53.192;8.184;2023-05-10T05:20:35;14.00;99.90
17529;DHT22;8882;53.192;8.184;2023-05-10T05:23:01;14.00;99.90
17529;DHT22;8882;53.192;8.184;2023-05-10T05:25:27;14.00;99.90
17529;DHT22;8882;53.192;8.184;2023-05-10T05:27:52;14.00;99.90
17529;DHT22;8882;53.192;8.184;2023-05-10T05:30:18;13.90;99.90
17529;DHT22;8882;53.192;8.184;2023-05-10T05:32:44;13.90;99.90
17529;DHT22;8882;53.192;8.184;2023-05-10T05:35:09;13.90;99.90
17529;DHT22;8882;53.192;8.184;2023-05-10T05:37:35;13.90;99.90
17529;DHT22;8882;53.192;8.184;2023-05-10T05:40:01;13.90;99.90
17529;DHT22;8882;53.192;8.184;2023-05-10T05:42:27;13.90;99.90
17529;DHT22;8882;53.192;8.184;2023-05-10T05:44:52;13.90;99.90
17529;DHT22;8882;53.192;8.184;2023-05-10T05:47:18;13.90;99.90
17529;DHT22;8882;53.192;8.184;2023-05-10T05:49:43;13.80;99.90
17529;DHT22;8882;53.192;8.184;2023-05-10T05:52:11;13.90;99.90
17529;DHT22;8882;53.192;8.184;2023-05-10T05:54:36;13.90;99.90
17529;DHT22;8882;53.192;8.184;2023-05-10T05:57:02;13.90;99.90
17529;DHT22;8882;53.192;8.184;2023-05-10T05:59:28;13.90;99.90
17529;DHT22;8882;53.192;8.184;2023-05-10T06:01:53;13.90;99.90
17529;DHT22;8882;53.192;8.184;2023-05-10T06:04:19;14.00;99.90
17529;DHT22;8882;53.192;8.184;2023-05-10T06:06:45;14.00;99.90
17529;DHT22;8882;53.192;8.184;2023-05-10T06:09:12;14.00;99.90
17529;DHT22;8882;53.192;8.184;2023-05-10T06:11:37;14.00;99.90
17529;DHT22;8882;53.192;8.184;2023-05-10T06:14:04;14.00;99.90
17529;DHT22;8882;53.192;8.184;2023-05-10T06:16:30;13.90;99.90
17529;DHT22;8882;53.192;8.184;2023-05-10T06:18:56;13.90;99.90
17529;DHT22;8882;53.192;8.184;2023-05-10T06:21:21;13.90;99.90
17529;DHT22;8882;53.192;8.184;2023-05-10T06:23:47;13.90;99.90
17529;DHT22;8882;53.192;8.184;2023-05-10T06:26:12;13.90;99.90
17529;DHT22;8882;53.192;8.184;2023-05-10T06:28:39;13.90;99.90
17529;DHT22;8882;53.192;8.184;2023-05-10T06:31:05;13.90;99.90
17529;DHT22;8882;53.192;8.184;2023-05-10T06:33:30;13.80;99.90
17529;DHT22;8882;53.192;8.184;2023-05-10T06:35:56;13.80;99.90
17529;DHT22;8882;53.192;8.184;2023-05-10T06:38:22;13.80;99.90
17529;DHT22;8882;53.192;8.184;2023-05-10T06:40:47;13.90;99.90
17529;DHT22;8882;53.192;8.184;2023-05-10T06:43:14;13.90;99.90
17529;DHT22;8882;53.192;8.184;2023-05-10T06:45:40;13.80;99.90
17529;DHT22;8882;53.192;8.184;2023-05-10T06:48:06;13.80;99.90
17529;DHT22;8882;53.192;8.184;2023-05-10T06:50:32;13.90;99.90
17529;DHT22;8882;53.192;8.184;2023-05-10T06:52:58;14.00;99.90
17529;DHT22;8882;53.192;8.184;2023-05-10T06:55:24;14.00;99.90
17529;DHT22;8882;53.192;8.184;2023-05-10T06:57:49;14.00;99.90
17529;DHT22;8882;53.192;8.184;2023-05-10T07:00:16;14.10;99.90
17529;DHT22;8882;53.192;8.184;2023-05-10T07:02:42;14.10;99.90
17529;DHT22;8882;53.192;8.184;2023-05-10T07:05:07;14.00;99.90
17529;DHT22;8882;53.192;8.184;2023-05-10T07:07:33;14.00;99.90
17529;DHT22;8882;53.192;8.184;2023-05-10T07:09:59;14.10;99.90
17529;DHT22;8882;53.192;8.184;2023-05-10T07:12:25;14.00;99.90
17529;DHT22;8882;53.192;8.184;2023-05-10T07:14:51;14.10;99.90
17529;DHT22;8882;53.192;8.184;2023-05-10T07:17:16;14.20;99.90
17529;DHT22;8882;53.192;8.184;2023-05-10T07:19:42;14.20;99.90
17529;DHT22;8882;53.192;8.184;2023-05-10T07:22:07;14.30;99.90
17529;DHT22;8882;53.192;8.184;2023-05-10T07:24:33;14.30;99.90
17529;DHT22;8882;53.192;8.184;2023-05-10T07:26:59;14.20;99.90
17529;DHT22;8882;53.192;8.184;2023-05-10T07:29:25;14.00;99.90
17529;DHT22;8882;53.192;8.184;2023-05-10T07:31:50;14.00;99.90
17529;DHT22;8882;53.192;8.184;2023-05-10T07:34:16;14.00;99.90
17529;DHT22;8882;53.192;8.184;2023-05-10T07:36:42;14.00;99.90
17529;DHT22;8882;53.192;8.184;2023-05-10T07:39:07;14.10;99.90
17529;DHT22;8882;53.192;8.184;2023-05-10T07:41:33;13.90;99.90
17529;DHT22;8882;53.192;8.184;2023-05-10T07:43:58;14.00;99.90
17529;DHT22;8882;53.192;8.184;2023-05-10T07:46:24;14.10;99.90
17529;DHT22;8882;53.192;8.184;2023-05-10T07:48:49;14.20;99.90
17529;DHT22;8882;53.192;8.184;2023-05-10T07:51:15;14.10;99.90
17529;DHT22;8882;53.192;8.184;2023-05-10T07:53:40;14.10;99.90
17529;DHT22;8882;53.192;8.184;2023-05-10T07:56:30;14.00;99.90
17529;DHT22;8882;53.192;8.184;2023-05-10T07:58:57;14.00;99.90
17529;DHT22;8882;53.192;8.184;2023-05-10T08:01:23;13.90;99.90
17529;DHT22;8882;53.192;8.184;2023-05-10T08:03:49;13.90;99.90
17529;DHT22;8882;53.192;8.184;2023-05-10T08:06:17;13.90;99.90
17529;DHT22;8882;53.192;8.184;2023-05-10T08:08:43;13.80;99.90
17529;DHT22;8882;53.192;8.184;2023-05-10T08:11:11;13.80;99.90
17529;DHT22;8882;53.192;8.184;2023-05-10T08:13:36;13.90;99.90
17529;DHT22;8882;53.192;8.184;2023-05-10T08:16:02;14.00;99.90
17529;DHT22;8882;53.192;8.184;2023-05-10T08:18:27;14.00;99.90
17529;DHT22;8882;53.192;8.184;2023-05-10T08:20:53;14.00;99.90
17529;DHT22;8882;53.192;8.184;2023-05-10T08:23:19;14.00;99.90
17529;DHT22;8882;53.192;8.184;2023-05-10T08:25:44;14.10;99.90
17529;DHT22;8882;53.192;8.184;2023-05-10T08:28:10;14.00;99.90
17529;DHT22;8882;53.192;8.184;2023-05-10T08:30:35;13.90;99.90
17529;DHT22;8882;53.192;8.184;2023-05-10T08:33:01;13.90;99.90
17529;DHT22;8882;53.192;8.184;2023-05-10T08:35:26;14.00;99.90
17529;DHT22;8882;53.192;8.184;2023-05-10T08:37:52;14.00;99.90
17529;DHT22;8882;53.192;8.184;2023-05-10T08:40:19;14.00;99.90
17529;DHT22;8882;53.192;8.184;2023-05-10T08:43:08;14.00;99.90
17529;DHT22;8882;53.192;8.184;2023-05-10T08:45:37;14.00;99.90
17529;DHT22;8882;53.192;8.184;2023-05-10T08:48:05;14.10;99.90
17529;DHT22;8882;53.192;8.184;2023-05-10T08:50:32;14.00;99.90
17529;DHT22;8882;53.192;8.184;2023-05-10T08:53:00;14.00;99.90
17529;DHT22;8882;53.192;8.184;2023-05-10T08:55:27;14.00;99.90
17529;DHT22;8882;53.192;8.184;2023-05-10T08:57:53;13.90;99.90
17529;DHT22;8882;53.192;8.184;2023-05-10T09:00:19;13.80;99.90
17529;DHT22;8882;53.192;8.184;2023-05-10T09:02:45;13.80;99.90
17529;DHT22;8882;53.192;8.184;2023-05-10T09:05:13;13.80;99.90
17529;DHT22;8882;53.192;8.184;2023-05-10T09:07:41;13.80;99.90
17529;DHT22;8882;53.192;8.184;2023-05-10T09:10:07;13.90;99.90
17529;DHT22;8882;53.192;8.184;2023-05-10T09:12:34;13.90;99.90
17529;DHT22;8882;53.192;8.184;2023-05-10T09:15:00;13.80;99.90
17529;DHT22;8882;53.192;8.184;2023-05-10T09:17:27;13.80;99.90
17529;DHT22;8882;53.192;8.184;2023-05-10T09:20:03;13.90;99.90
17529;DHT22;8882;53.192;8.184;2023-05-10T09:22:33;14.00;99.90
17529;DHT22;8882;53.192;8.184;2023-05-10T09:25:12;13.90;99.90
17529;DHT22;8882;53.192;8.184;2023-05-10T09:27:39;14.00;99.90
17529;DHT22;8882;53.192;8.184;2023-05-10T09:30:05;14.00;99.90
17529;DHT22;8882;53.192;8.184;2023-05-10T09:32:42;14.10;99.90
17529;DHT22;8882;53.192;8.184;2023-05-10T09:35:09;14.00;99.90
17529;DHT22;8882;53.192;8.184;2023-05-10T09:37:34;14.10;99.90
17529;DHT22;8882;53.192;8.184;2023-05-10T09:40:00;14.10;99.90
17529;DHT22;8882;53.192;8.184;2023-05-10T09:42:25;14.20;99.90
17529;DHT22;8882;53.192;8.184;2023-05-10T09:44:51;14.20;99.90
17529;DHT22;8882;53.192;8.184;2023-05-10T09:47:17;14.20;99.90
17529;DHT22;8882;53.192;8.184;2023-05-10T09:49:45;14.30;99.90
17529;DHT22;8882;53.192;8.184;2023-05-10T09:52:14;14.40;99.90
17529;DHT22;8882;53.192;8.184;2023-05-10T09:54:52;14.50;99.90
17529;DHT22;8882;53.192;8.184;2023-05-10T09:57:21;14.70;99.90
17529;DHT22;8882;53.192;8.184;2023-05-10T09:59:48;14.80;99.90
17529;DHT22;8882;53.192;8.184;2023-05-10T10:02:13;14.80;99.90
17529;DHT22;8882;53.192;8.184;2023-05-10T10:04:40;14.70;99.90
17529;DHT22;8882;53.192;8.184;2023-05-10T10:07:06;14.70;99.90
17529;DHT22;8882;53.192;8.184;2023-05-10T10:09:32;14.70;99.90
17529;DHT22;8882;53.192;8.184;2023-05-10T10:12:02;14.70;99.90
17529;DHT22;8882;53.192;8.184;2023-05-10T10:14:29;14.60;99.90
17529;DHT22;8882;53.192;8.184;2023-05-10T10:16:55;14.70;99.90
17529;DHT22;8882;53.192;8.184;2023-05-10T10:19:21;14.70;99.90
17529;DHT22;8882;53.192;8.184;2023-05-10T10:21:48;14.70;99.90
17529;DHT22;8882;53.192;8.184;2023-05-10T10:24:14;14.70;99.90
17529;DHT22;8882;53.192;8.184;2023-05-10T10:26:41;14.80;99.90
17529;DHT22;8882;53.192;8.184;2023-05-10T10:29:32;14.90;99.90
17529;DHT22;8882;53.192;8.184;2023-05-10T10:34:49;14.80;99.90
17529;DHT22;8882;53.192;8.184;2023-05-10T10:37:15;14.80;99.90
17529;DHT22;8882;53.192;8.184;2023-05-10T10:39:41;14.80;99.90
17529;DHT22;8882;53.192;8.184;2023-05-10T10:42:06;14.90;99.90
17529;DHT22;8882;53.192;8.184;2023-05-10T10:52:25;14.80;99.90
17529;DHT22;8882;53.192;8.184;2023-05-10T10:57:33;14.90;99.90
17529;DHT22;8882;53.192;8.184;2023-05-10T11:03:05;14.90;99.90
17529;DHT22;8882;53.192;8.184;2023-05-10T11:08:13;15.00;99.90
17529;DHT22;8882;53.192;8.184;2023-05-10T11:10:40;15.00;99.90
17529;DHT22;8882;53.192;8.184;2023-05-10T11:13:14;14.90;99.90
17529;DHT22;8882;53.192;8.184;2023-05-10T11:15:40;14.80;99.90
17529;DHT22;8882;53.192;8.184;2023-05-10T11:18:17;14.90;99.90
17529;DHT22;8882;53.192;8.184;2023-05-10T11:20:44;14.90;99.90
17529;DHT22;8882;53.192;8.184;2023-05-10T11:23:15;14.80;99.90
17529;DHT22;8882;53.192;8.184;2023-05-10T11:25:45;14.60;99.90
17529;DHT22;8882;53.192;8.184;2023-05-10T11:28:12;14.70;99.90
17529;DHT22;8882;53.192;8.184;2023-05-10T11:30:39;14.70;99.90
17529;DHT22;8882;53.192;8.184;2023-05-10T11:33:05;14.80;99.90
17529;DHT22;8882;53.192;8.184;2023-05-10T11:35:37;14.70;99.90
17529;DHT22;8882;53.192;8.184;2023-05-10T11:38:08;14.60;99.90
17529;DHT22;8882;53.192;8.184;2023-05-10T11:40:35;14.60;99.90
17529;DHT22;8882;53.192;8.184;2023-05-10T11:43:02;14.60;99.90
17529;DHT22;8882;53.192;8.184;2023-05-10T11:45:28;14.60;99.90
17529;DHT22;8882;53.192;8.184;2023-05-10T11:47:55;14.60;99.90
17529;DHT22;8882;53.192;8.184;2023-05-10T11:50:22;14.60;99.90
17529;DHT22;8882;53.192;8.184;2023-05-10T11:52:52;14.60;99.90
17529;DHT22;8882;53.192;8.184;2023-05-10T11:55:17;14.60;99.90
17529;DHT22;8882;53.192;8.184;2023-05-10T11:57:43;14.60;99.90
17529;DHT22;8882;53.192;8.184;2023-05-10T12:00:12;14.70;99.90
17529;DHT22;8882;53.192;8.184;2023-05-10T12:02:37;14.70;99.90
17529;DHT22;8882;53.192;8.184;2023-05-10T12:05:04;14.60;99.90
17529;DHT22;8882;53.192;8.184;2023-05-10T12:07:30;14.60;99.90
17529;DHT22;8882;53.192;8.184;2023-05-10T12:10:12;14.60;99.90
17529;DHT22;8882;53.192;8.184;2023-05-10T12:12:44;14.60;99.90
17529;DHT22;8882;53.192;8.184;2023-05-10T12:15:12;14.60;99.90
17529;DHT22;8882;53.192;8.184;2023-05-10T12:17:38;14.50;99.90
17529;DHT22;8882;53.192;8.184;2023-05-10T12:20:16;14.50;99.90
17529;DHT22;8882;53.192;8.184;2023-05-10T12:22:51;14.50;99.90
17529;DHT22;8882;53.192;8.184;2023-05-10T12:25:18;14.40;99.90
17529;DHT22;8882;53.192;8.184;2023-05-10T12:27:57;14.40;99.90
17529;DHT22;8882;53.192;8.184;2023-05-10T12:30:27;14.30;99.90
17529;DHT22;8882;53.192;8.184;2023-05-10T12:32:54;14.30;99.90
17529;DHT22;8882;53.192;8.184;2023-05-10T12:35:24;14.40;99.90
17529;DHT22;8882;53.192;8.184;2023-05-10T12:37:53;14.40;99.90
17529;DHT22;8882;53.192;8.184;2023-05-10T12:40:18;14.50;99.90
17529;DHT22;8882;53.192;8.184;2023-05-10T12:42:44;14.60;99.90
17529;DHT22;8882;53.192;8.184;2023-05-10T12:45:11;14.70;99.90
17529;DHT22;8882;53.192;8.184;2023-05-10T12:47:37;14.80;99.90
17529;DHT22;8882;53.192;8.184;2023-05-10T12:50:03;15.00;99.90
17529;DHT22;8882;53.192;8.184;2023-05-10T12:52:29;15.10;99.90
17529;DHT22;8882;53.192;8.184;2023-05-10T12:54:56;15.10;99.90
17529;DHT22;8882;53.192;8.184;2023-05-10T12:57:22;15.10;99.90
17529;DHT22;8882;53.192;8.184;2023-05-10T12:59:48;15.00;99.90
17529;DHT22;8882;53.192;8.184;2023-05-10T13:02:13;15.00;99.90
17529;DHT22;8882;53.192;8.184;2023-05-10T13:04:40;15.00;99.90
17529;DHT22;8882;53.192;8.184;2023-05-10T13:07:09;15.10;99.90
17529;DHT22;8882;53.192;8.184;2023-05-10T13:09:35;15.00;99.90
17529;DHT22;8882;53.192;8.184;2023-05-10T13:12:01;15.00;99.90
17529;DHT22;8882;53.192;8.184;2023-05-10T13:14:27;15.00;99.90
17529;DHT22;8882;53.192;8.184;2023-05-10T13:16:52;15.00;99.90
17529;DHT22;8882;53.192;8.184;2023-05-10T13:19:18;15.10;99.90
17529;DHT22;8882;53.192;8.184;2023-05-10T13:21:43;15.20;99.90
17529;DHT22;8882;53.192;8.184;2023-05-10T13:24:12;15.30;99.90
17529;DHT22;8882;53.192;8.184;2023-05-10T13:26:42;15.40;99.90
17529;DHT22;8882;53.192;8.184;2023-05-10T13:29:08;15.50;99.90
17529;DHT22;8882;53.192;8.184;2023-05-10T13:31:34;15.50;99.90
17529;DHT22;8882;53.192;8.184;2023-05-10T13:34:00;15.50;99.90
17529;DHT22;8882;53.192;8.184;2023-05-10T13:36:26;15.50;99.90
17529;DHT22;8882;53.192;8.184;2023-05-10T13:38:51;15.50;99.90
17529;DHT22;8882;53.192;8.184;2023-05-10T13:41:17;15.40;99.90
17529;DHT22;8882;53.192;8.184;2023-05-10T13:43:42;15.40;99.90
17529;DHT22;8882;53.192;8.184;2023-05-10T13:46:08;15.50;99.90
17529;DHT22;8882;53.192;8.184;2023-05-10T13:48:34;15.60;99.90
17529;DHT22;8882;53.192;8.184;2023-05-10T13:50:59;15.70;99.90
17529;DHT22;8882;53.192;8.184;2023-05-10T13:53:25;15.80;99.90
17529;DHT22;8882;53.192;8.184;2023-05-10T13:55:50;15.80;99.90
17529;DHT22;8882;53.192;8.184;2023-05-10T13:58:16;16.00;99.90
17529;DHT22;8882;53.192;8.184;2023-05-10T14:00:41;16.00;99.90
17529;DHT22;8882;53.192;8.184;2023-05-10T14:03:07;16.00;99.90
17529;DHT22;8882;53.192;8.184;2023-05-10T14:05:34;16.00;99.90
17529;DHT22;8882;53.192;8.184;2023-05-10T14:07:59;16.10;99.90
17529;DHT22;8882;53.192;8.184;2023-05-10T14:10:25;16.10;99.90
17529;DHT22;8882;53.192;8.184;2023-05-10T14:12:51;16.00;99.90
17529;DHT22;8882;53.192;8.184;2023-05-10T14:15:16;16.00;99.90
17529;DHT22;8882;53.192;8.184;2023-05-10T14:17:42;15.90;99.90
17529;DHT22;8882;53.192;8.184;2023-05-10T14:20:08;15.80;99.90
17529;DHT22;8882;53.192;8.184;2023-05-10T14:22:34;15.70;99.90
17529;DHT22;8882;53.192;8.184;2023-05-10T14:24:59;15.70;99.90
17529;DHT22;8882;53.192;8.184;2023-05-10T14:27:25;15.70;99.90
17529;DHT22;8882;53.192;8.184;2023-05-10T14:29:51;15.70;99.90
17529;DHT22;8882;53.192;8.184;2023-05-10T14:32:16;15.60;99.90
17529;DHT22;8882;53.192;8.184;2023-05-10T14:34:42;15.60;99.90
17529;DHT22;8882;53.192;8.184;2023-05-10T14:37:10;15.70;99.90
17529;DHT22;8882;53.192;8.184;2023-05-10T14:39:35;15.70;99.90
17529;DHT22;8882;53.192;8.184;2023-05-10T14:42:01;15.70;99.90
17529;DHT22;8882;53.192;8.184;2023-05-10T14:44:27;15.70;99.90
17529;DHT22;8882;53.192;8.184;2023-05-10T14:46:53;15.70;99.90
17529;DHT22;8882;53.192;8.184;2023-05-10T14:49:19;15.80;99.90
17529;DHT22;8882;53.192;8.184;2023-05-10T14:51:44;15.80;99.90
17529;DHT22;8882;53.192;8.184;2023-05-10T14:54:10;15.70;99.90
17529;DHT22;8882;53.192;8.184;2023-05-10T14:56:36;15.80;99.90
17529;DHT22;8882;53.192;8.184;2023-05-10T14:59:03;15.70;99.90
17529;DHT22;8882;53.192;8.184;2023-05-10T15:01:29;15.70;99.90
17529;DHT22;8882;53.192;8.184;2023-05-10T15:03:55;15.80;99.90
17529;DHT22;8882;53.192;8.184;2023-05-10T15:06:29;15.80;99.90
17529;DHT22;8882;53.192;8.184;2023-05-10T15:08:55;15.70;99.90
17529;DHT22;8882;53.192;8.184;2023-05-10T15:11:21;15.80;99.90
17529;DHT22;8882;53.192;8.184;2023-05-10T15:13:46;15.80;99.90
17529;DHT22;8882;53.192;8.184;2023-05-10T15:16:12;15.80;99.90
17529;DHT22;8882;53.192;8.184;2023-05-10T15:18:37;15.80;99.90
17529;DHT22;8882;53.192;8.184;2023-05-10T15:21:03;15.80;99.90
17529;DHT22;8882;53.192;8.184;2023-05-10T15:23:28;15.80;99.90
17529;DHT22;8882;53.192;8.184;2023-05-10T15:25:55;15.80;99.90
17529;DHT22;8882;53.192;8.184;2023-05-10T15:28:21;15.80;99.90
17529;DHT22;8882;53.192;8.184;2023-05-10T15:30:47;15.90;99.90
17529;DHT22;8882;53.192;8.184;2023-05-10T15:33:13;16.00;99.90
17529;DHT22;8882;53.192;8.184;2023-05-10T15:35:39;16.00;99.90
17529;DHT22;8882;53.192;8.184;2023-05-10T15:38:05;16.00;99.90
17529;DHT22;8882;53.192;8.184;2023-05-10T15:40:31;16.00;99.90
17529;DHT22;8882;53.192;8.184;2023-05-10T15:42:56;16.10;99.90
17529;DHT22;8882;53.192;8.184;2023-05-10T15:45:22;16.10;99.90
17529;DHT22;8882;53.192;8.184;2023-05-10T15:47:47;16.10;99.90
17529;DHT22;8882;53.192;8.184;2023-05-10T15:50:14;16.10;99.90
17529;DHT22;8882;53.192;8.184;2023-05-10T15:52:40;16.10;99.90
17529;DHT22;8882;53.192;8.184;2023-05-10T15:55:07;16.10;99.90
17529;DHT22;8882;53.192;8.184;2023-05-10T15:57:39;16.00;99.90
17529;DHT22;8882;53.192;8.184;2023-05-10T16:00:08;16.00;99.90
17529;DHT22;8882;53.192;8.184;2023-05-10T16:02:34;16.00;99.90
17529;DHT22;8882;53.192;8.184;2023-05-10T16:05:00;16.00;99.90
17529;DHT22;8882;53.192;8.184;2023-05-10T16:07:26;16.00;99.90
17529;DHT22;8882;53.192;8.184;2023-05-10T16:09:51;16.10;99.90
17529;DHT22;8882;53.192;8.184;2023-05-10T16:12:17;16.00;99.90
17529;DHT22;8882;53.192;8.184;2023-05-10T16:14:43;16.10;99.90
17529;DHT22;8882;53.192;8.184;2023-05-10T16:17:08;16.10;99.90
17529;DHT22;8882;53.192;8.184;2023-05-10T16:19:34;16.30;99.90
17529;DHT22;8882;53.192;8.184;2023-05-10T16:21:59;16.40;99.90
17529;DHT22;8882;53.192;8.184;2023-05-10T16:24:25;16.40;99.90
17529;DHT22;8882;53.192;8.184;2023-05-10T16:26:50;16.40;99.90
17529;DHT22;8882;53.192;8.184;2023-05-10T16:29:16;16.30;99.90
17529;DHT22;8882;53.192;8.184;2023-05-10T16:31:41;16.20;99.90
17529;DHT22;8882;53.192;8.184;2023-05-10T16:34:07;16.20;99.90
17529;DHT22;8882;53.192;8.184;2023-05-10T16:36:32;16.20;99.90
17529;DHT22;8882;53.192;8.184;2023-05-10T16:38:58;16.20;99.90
17529;DHT22;8882;53.192;8.184;2023-05-10T16:41:24;16.20;99.90
17529;DHT22;8882;53.192;8.184;2023-05-10T16:43:50;16.10;99.90
17529;DHT22;8882;53.192;8.184;2023-05-10T16:46:16;16.00;99.90
17529;DHT22;8882;53.192;8.184;2023-05-10T16:48:42;16.00;99.90
17529;DHT22;8882;53.192;8.184;2023-05-10T16:51:08;15.90;99.90
17529;DHT22;8882;53.192;8.184;2023-05-10T16:53:34;15.90;99.90
17529;DHT22;8882;53.192;8.184;2023-05-10T16:56:00;15.90;99.90
17529;DHT22;8882;53.192;8.184;2023-05-10T16:58:25;15.90;99.90
17529;DHT22;8882;53.192;8.184;2023-05-10T17:00:51;15.90;99.90
17529;DHT22;8882;53.192;8.184;2023-05-10T17:03:17;15.80;99.90
17529;DHT22;8882;53.192;8.184;2023-05-10T17:05:42;15.80;99.90
17529;DHT22;8882;53.192;8.184;2023-05-10T17:08:08;15.80;99.90
17529;DHT22;8882;53.192;8.184;2023-05-10T17:10:34;15.80;99.90
17529;DHT22;8882;53.192;8.184;2023-05-10T17:13:00;15.80;99.90
17529;DHT22;8882;53.192;8.184;2023-05-10T17:15:26;15.90;99.90
17529;DHT22;8882;53.192;8.184;2023-05-10T17:17:51;15.80;99.90
17529;DHT22;8882;53.192;8.184;2023-05-10T17:20:17;15.80;99.90
17529;DHT22;8882;53.192;8.184;2023-05-10T17:22:42;15.80;99.90
17529;DHT22;8882;53.192;8.184;2023-05-10T17:25:08;15.80;99.90
17529;DHT22;8882;53.192;8.184;2023-05-10T17:27:33;15.80;99.90
17529;DHT22;8882;53.192;8.184;2023-05-10T17:29:59;15.70;99.90
17529;DHT22;8882;53.192;8.184;2023-05-10T17:32:25;15.70;99.90
17529;DHT22;8882;53.192;8.184;2023-05-10T17:34:50;15.60;99.90
17529;DHT22;8882;53.192;8.184;2023-05-10T17:37:16;15.60;99.90
17529;DHT22;8882;53.192;8.184;2023-05-10T17:39:41;15.60;99.90
17529;DHT22;8882;53.192;8.184;2023-05-10T17:42:07;15.50;99.90
17529;DHT22;8882;53.192;8.184;2023-05-10T17:44:32;15.50;99.90
17529;DHT22;8882;53.192;8.184;2023-05-10T17:46:58;15.50;99.90
17529;DHT22;8882;53.192;8.184;2023-05-10T17:49:24;15.50;99.90
17529;DHT22;8882;53.192;8.184;2023-05-10T17:51:49;15.50;99.90
17529;DHT22;8882;53.192;8.184;2023-05-10T17:54:15;15.50;99.90
17529;DHT22;8882;53.192;8.184;2023-05-10T17:56:41;15.50;99.90
17529;DHT22;8882;53.192;8.184;2023-05-10T17:59:06;15.50;99.90
17529;DHT22;8882;53.192;8.184;2023-05-10T18:01:32;15.40;99.90
17529;DHT22;8882;53.192;8.184;2023-05-10T18:03:57;15.40;99.90
17529;DHT22;8882;53.192;8.184;2023-05-10T18:06:23;15.40;99.90
17529;DHT22;8882;53.192;8.184;2023-05-10T18:08:48;15.40;99.90
17529;DHT22;8882;53.192;8.184;2023-05-10T18:11:14;15.40;99.90
17529;DHT22;8882;53.192;8.184;2023-05-10T18:13:39;15.30;99.90
17529;DHT22;8882;53.192;8.184;2023-05-10T18:16:05;15.30;99.90
17529;DHT22;8882;53.192;8.184;2023-05-10T18:18:33;15.30;99.90
17529;DHT22;8882;53.192;8.184;2023-05-10T18:20:59;15.20;99.90
17529;DHT22;8882;53.192;8.184;2023-05-10T18:23:25;15.20;99.90
17529;DHT22;8882;53.192;8.184;2023-05-10T18:25:51;15.20;99.90
17529;DHT22;8882;53.192;8.184;2023-05-10T18:28:16;15.20;99.90
17529;DHT22;8882;53.192;8.184;2023-05-10T18:30:42;15.20;99.90
17529;DHT22;8882;53.192;8.184;2023-05-10T18:33:08;15.10;99.90
17529;DHT22;8882;53.192;8.184;2023-05-10T18:35:39;15.10;99.90
17529;DHT22;8882;53.192;8.184;2023-05-10T18:38:05;15.10;99.90
17529;DHT22;8882;53.192;8.184;2023-05-10T18:40:32;15.10;99.90
17529;DHT22;8882;53.192;8.184;2023-05-10T18:42:57;15.10;99.90
17529;DHT22;8882;53.192;8.184;2023-05-10T18:45:23;15.00;99.90
17529;DHT22;8882;53.192;8.184;2023-05-10T18:47:48;14.90;99.90
17529;DHT22;8882;53.192;8.184;2023-05-10T18:50:14;14.90;99.90
17529;DHT22;8882;53.192;8.184;2023-05-10T18:52:41;14.80;99.90
17529;DHT22;8882;53.192;8.184;2023-05-10T18:55:07;14.80;99.90
17529;DHT22;8882;53.192;8.184;2023-05-10T18:57:33;14.80;99.90
17529;DHT22;8882;53.192;8.184;2023-05-10T19:00:09;14.80;99.90
17529;DHT22;8882;53.192;8.184;2023-05-10T19:02:38;14.80;99.90
17529;DHT22;8882;53.192;8.184;2023-05-10T19:05:04;14.70;99.90
17529;DHT22;8882;53.192;8.184;2023-05-10T19:07:30;14.60;99.90
17529;DHT22;8882;53.192;8.184;2023-05-10T19:09:56;14.50;99.90
17529;DHT22;8882;53.192;8.184;2023-05-10T19:12:21;14.40;99.90
17529;DHT22;8882;53.192;8.184;2023-05-10T19:14:47;14.40;99.90
17529;DHT22;8882;53.192;8.184;2023-05-10T19:17:12;14.40;99.90
17529;DHT22;8882;53.192;8.184;2023-05-10T19:19:38;14.30;99.90
17529;DHT22;8882;53.192;8.184;2023-05-10T19:22:03;14.40;99.90
17529;DHT22;8882;53.192;8.184;2023-05-10T19:24:29;14.30;99.90
17529;DHT22;8882;53.192;8.184;2023-05-10T19:26:54;14.30;99.90
17529;DHT22;8882;53.192;8.184;2023-05-10T19:29:22;14.30;99.90
17529;DHT22;8882;53.192;8.184;2023-05-10T19:31:47;14.30;99.90
17529;DHT22;8882;53.192;8.184;2023-05-10T19:34:13;14.20;99.90
17529;DHT22;8882;53.192;8.184;2023-05-10T19:36:39;14.20;99.90
17529;DHT22;8882;53.192;8.184;2023-05-10T19:39:05;14.20;99.90
17529;DHT22;8882;53.192;8.184;2023-05-10T19:41:30;14.20;99.90
17529;DHT22;8882;53.192;8.184;2023-05-10T19:43:56;14.20;99.90
17529;DHT22;8882;53.192;8.184;2023-05-10T19:46:22;14.10;99.90
17529;DHT22;8882;53.192;8.184;2023-05-10T19:48:48;14.10;99.90
17529;DHT22;8882;53.192;8.184;2023-05-10T19:51:13;14.10;99.90
17529;DHT22;8882;53.192;8.184;2023-05-10T19:53:39;14.10;99.90
17529;DHT22;8882;53.192;8.184;2023-05-10T19:56:08;14.00;99.90
17529;DHT22;8882;53.192;8.184;2023-05-10T19:58:34;14.10;99.90
17529;DHT22;8882;53.192;8.184;2023-05-10T20:00:59;14.10;99.90
17529;DHT22;8882;53.192;8.184;2023-05-10T20:03:25;14.10;99.90
17529;DHT22;8882;53.192;8.184;2023-05-10T20:05:51;14.10;99.90
17529;DHT22;8882;53.192;8.184;2023-05-10T20:08:16;14.10;99.90
17529;DHT22;8882;53.192;8.184;2023-05-10T20:10:42;14.00;99.90
17529;DHT22;8882;53.192;8.184;2023-05-10T20:13:07;13.90;99.90
17529;DHT22;8882;53.192;8.184;2023-05-10T20:15:33;13.90;99.90
17529;DHT22;8882;53.192;8.184;2023-05-10T20:17:58;13.90;99.90
17529;DHT22;8882;53.192;8.184;2023-05-10T20:20:24;13.90;99.90
17529;DHT22;8882;53.192;8.184;2023-05-10T20:22:50;13.90;99.90
17529;DHT22;8882;53.192;8.184;2023-05-10T20:25:17;13.80;99.90
17529;DHT22;8882;53.192;8.184;2023-05-10T20:27:43;13.70;99.90
17529;DHT22;8882;53.192;8.184;2023-05-10T20:30:09;13.70;99.90